Flight Track Log - Related Links

Times and Time Zones

All times are in EDT time to prevent confusion due to time zone crossing. See the N978AC flight status page for this flight to view local times or setup timezone preferences in your user account.

Time Position Orientation Groundspeed Altitude Reporting Facility
EDT Latitude Longitude Course Direction KTS MPH feet Rate Location/Type
Thu 08:34:03 PM 37.5333 -122.2667 North 73 84 500  Level Northern Cal TRACON
Thu 08:34:57 PM 37.5333 -122.2500 90° East 102 117 1,000 421 Climbing Northern Cal TRACON
Thu 08:35:57 PM 37.5167 -122.2167 122° Southeast 109 125 1,300 476 Climbing Northern Cal TRACON
Thu 08:37:03 PM 37.5000 -122.1833 122° Southeast 100 115 2,000 381 Climbing Northern Cal TRACON
Thu 08:38:03 PM 37.4667 -122.1500 142° Southeast 123 142 2,100 158 Climbing Northern Cal TRACON
Thu 08:38:57 PM 37.4667 -122.1333 90° East 117 135 2,300 421 Climbing Northern Cal TRACON
Thu 08:39:00 PM 37.6419 -122.2167 North  Level FlightAware Approximate
Thu 08:39:57 PM 37.4667 -122.1000 90° East 89 102 2,900  Level Northern Cal TRACON
Thu 08:40:57 PM 37.5000 -122.0833 22° Northeast 106 122 3,000 50 Climbing Northern Cal TRACON
Thu 08:41:57 PM 37.5167 -122.0500 58° Northeast 105 121 3,000  Level Northern Cal TRACON
Thu 08:43:03 PM 37.5333 -122.0167 58° Northeast 107 123 3,000 143 Level Northern Cal TRACON
Thu 08:44:03 PM 37.5500 -122.0000 38° Northeast 106 122 3,300 400 Climbing Northern Cal TRACON
Thu 08:45:03 PM 37.5667 -121.9667 58° Northeast 99 114 3,800 368 Climbing Northern Cal TRACON
Thu 08:45:57 PM 37.5833 -121.9500 38° Northeast 105 121 4,000 400 Climbing Northern Cal TRACON
Thu 08:47:03 PM 37.6167 -121.9167 38° Northeast 89 102 4,600 500 Climbing Northern Cal TRACON
Thu 08:47:57 PM 37.6333 -121.9000 38° Northeast 87 100 5,000 379 Climbing Northern Cal TRACON
Thu 08:48:38 PM 37.6353 -121.8844 81° East 90 104 5,200 291 Climbing Oakland Center
Thu 08:49:40 PM 37.6506 -121.8603 51° Northeast 90 104 5,500 345 Climbing Oakland Center
Thu 08:50:57 PM 37.6667 -121.8167 65° Northeast 93 107 6,000 394 Climbing Northern Cal TRACON
Thu 08:51:57 PM 37.6667 -121.8000 90° East 87 100 6,400 333 Climbing Northern Cal TRACON
Thu 08:53:03 PM 37.6500 -121.7667 122° Southeast 81 93 6,700 300 Climbing Northern Cal TRACON
Thu 08:53:57 PM 37.6500 -121.7500 90° East 78 90 7,000 263 Climbing Northern Cal TRACON
Thu 08:54:57 PM 37.6333 -121.7167 122° Southeast 94 108 7,200 50 Climbing Northern Cal TRACON
Thu 08:55:57 PM 37.6167 -121.6833 122° Southeast 100 115 7,100  Descending Northern Cal TRACON
Thu 08:56:57 PM 37.6167 -121.6500 90° East 96 110 7,200  Climbing Northern Cal TRACON
Thu 08:57:58 PM 37.6000 -121.6167 122° Southeast 105 121 7,100  Descending Northern Cal TRACON
Thu 08:59:04 PM 37.5833 -121.5833 122° Southeast 97 112 7,200 50 Climbing Northern Cal TRACON
Thu 08:59:58 PM 37.5833 -121.5667 90° East 98 113 7,200  Level Northern Cal TRACON
Thu 09:00:58 PM 37.5667 -121.5333 122° Southeast 100 115 7,200  Level Northern Cal TRACON
Thu 09:01:58 PM 37.5500 -121.5000 122° Southeast 102 117 7,200  Level Northern Cal TRACON
Thu 09:02:58 PM 37.5333 -121.4667 122° Southeast 91 105 7,200 -50 Level Northern Cal TRACON
Thu 09:03:58 PM 37.5333 -121.4333 90° East 91 105 7,100  Descending Northern Cal TRACON
Thu 09:05:04 PM 37.5167 -121.4000 122° Southeast 98 113 7,200 50 Climbing Northern Cal TRACON
Thu 09:05:58 PM 37.5000 -121.3833 142° Southeast 95 109 7,200  Level Northern Cal TRACON
Thu 09:06:58 PM 37.5000 -121.3500 90° East 94 108 7,200  Level Northern Cal TRACON
Thu 09:07:58 PM 37.4833 -121.3167 122° Southeast 98 113 7,200  Level Northern Cal TRACON
Thu 09:08:58 PM 37.4667 -121.3000 142° Southeast 92 106 7,200  Level Northern Cal TRACON
Thu 09:10:04 PM 37.4667 -121.2667 90° East 89 102 7,200  Level Northern Cal TRACON
Thu 09:10:58 PM 37.4500 -121.2333 122° Southeast 90 104 7,200  Level Northern Cal TRACON
Thu 09:12:04 PM 37.4333 -121.2000 122° Southeast 99 114 7,200  Level Northern Cal TRACON
Thu 09:12:58 PM 37.4333 -121.1833 90° East 88 101 7,200  Level Northern Cal TRACON
Thu 09:13:58 PM 37.4167 -121.1500 122° Southeast 95 109 7,200  Level Northern Cal TRACON
Thu 09:14:58 PM 37.4000 -121.1167 122° Southeast 94 108 7,200  Level Northern Cal TRACON
Thu 09:15:58 PM 37.4000 -121.1000 90° East 86 99 7,200  Level Northern Cal TRACON
Thu 09:16:58 PM 37.3833 -121.0667 122° Southeast 100 115 7,200  Level Northern Cal TRACON
Thu 09:17:58 PM 37.3667 -121.0333 122° Southeast 101 116 7,200  Level Northern Cal TRACON
Thu 09:19:04 PM 37.3500 -121.0000 122° Southeast 102 117 7,200 -48 Level Northern Cal TRACON
Thu 09:20:04 PM 37.3500 -120.9667 90° East 103 119 7,100 -50 Descending Northern Cal TRACON
Thu 09:21:04 PM 37.3333 -120.9333 122° Southeast 100 115 7,100  Level Northern Cal TRACON
Thu 09:21:59 PM 37.3167 -120.9000 122° Southeast 99 114 7,100 52 Level Northern Cal TRACON
Thu 09:22:59 PM 37.3167 -120.8833 90° East 95 109 7,200 50 Climbing Northern Cal TRACON
Thu 09:23:58 PM 37.3000 -120.8500 122° Southeast 99 114 7,200  Level Northern Cal TRACON
Thu 09:24:59 PM 37.2833 -120.8167 122° Southeast 96 110 7,200  Level Northern Cal TRACON
Thu 09:25:59 PM 37.2667 -120.7833 122° Southeast 101 116 7,200  Level Northern Cal TRACON
Thu 09:26:59 PM 37.2667 -120.7500 90° East 97 112 7,200  Level Northern Cal TRACON
Thu 09:27:59 PM 37.2500 -120.7167 122° Southeast 98 113 7,200  Level Northern Cal TRACON
Thu 09:29:04 PM 37.2333 -120.6833 122° Southeast 96 110 7,200  Level Northern Cal TRACON
Thu 09:30:04 PM 37.2167 -120.6667 141° Southeast 99 114 7,200  Level Northern Cal TRACON
Thu 09:30:59 PM 37.2167 -120.6333 90° East 101 116 7,200  Level Northern Cal TRACON
Thu 09:32:04 PM 37.2000 -120.6000 122° Southeast 100 115 7,200 -48 Level Northern Cal TRACON
Thu 09:33:05 PM 37.1833 -120.5667 122° Southeast 101 116 7,100  Descending Northern Cal TRACON
Thu 09:34:05 PM 37.1833 -120.5333 90° East 101 116 7,200 53 Climbing Northern Cal TRACON
Thu 09:34:59 PM 37.1667 -120.5167 141° Southeast 96 110 7,200  Level Northern Cal TRACON
Thu 09:36:05 PM 37.1500 -120.4833 122° Southeast 98 113 7,200  Level Northern Cal TRACON
Thu 09:36:59 PM 37.1333 -120.4500 122° Southeast 97 112 7,200 -53 Level Northern Cal TRACON
Thu 09:37:59 PM 37.1333 -120.4167 90° East 99 114 7,100 -56 Descending Northern Cal TRACON
Thu 09:38:47 PM 37.1211 -120.3939 124° Southeast 98 113 7,100 -55 Level Oakland Center
Thu 09:39:48 PM 37.1069 -120.3619 119° Southeast 99 114 7,000 -49 Descending Oakland Center
Thu 09:40:50 PM 37.0961 -120.3317 114° Southeast 98 113 7,000 49 Level Oakland Center
Thu 09:41:51 PM 37.0831 -120.3000 117° Southeast 98 113 7,100 49 Climbing Oakland Center
Thu 09:42:52 PM 37.0681 -120.2750 127° Southeast 97 112 7,100  Level Oakland Center
Thu 09:43:54 PM 37.0514 -120.2492 129° Southeast 98 113 7,100  Level Oakland Center
Thu 09:44:55 PM 37.0333 -120.2192 127° Southeast 99 114 7,100 -49 Level Oakland Center
Thu 09:45:56 PM 37.0142 -120.1892 129° Southeast 99 114 7,000  Descending Oakland Center
Thu 09:46:58 PM 36.9972 -120.1611 127° Southeast 99 114 7,100 49 Climbing Oakland Center
Thu 09:47:59 PM 36.9828 -120.1406 131° Southeast 97 112 7,100  Level Oakland Center
Thu 09:49:01 PM 36.9650 -120.1131 129° Southeast 97 112 7,100 -49 Level Oakland Center
Thu 09:50:02 PM 36.9425 -120.0822 132° Southeast 99 114 7,000 -49 Descending Oakland Center
Thu 09:51:03 PM 36.9253 -120.0569 130° Southeast 99 114 7,000 49 Level Oakland Center
Thu 09:52:05 PM 36.9081 -120.0300 129° Southeast 100 115 7,100 49 Climbing Oakland Center
Thu 09:53:06 PM 36.8903 -120.0022 129° Southeast 99 114 7,100  Level Oakland Center
Thu 09:54:08 PM 36.8736 -119.9750 127° Southeast 99 114 7,100  Level Oakland Center
Thu 09:55:09 PM 36.8556 -119.9489 131° Southeast 100 115 7,100  Level Oakland Center
Thu 09:56:10 PM 36.8378 -119.9236 131° Southeast 99 114 7,100  Level Oakland Center
Thu 09:57:12 PM 36.8208 -119.8967 128° Southeast 99 114 7,100  Level Oakland Center
Thu 09:58:13 PM 36.8017 -119.8722 134° Southeast 99 114 7,100  Level Oakland Center
Thu 09:59:15 PM 36.7769 -119.8442 138° Southeast 99 114 7,100 -49 Level Oakland Center
Thu 10:00:16 PM 36.7561 -119.8225 140° Southeast 99 114 7,000 -148 Descending Oakland Center
Thu 10:01:17 PM 36.7350 -119.7969 136° Southeast 104 120 6,800 -244 Descending Oakland Center
Thu 10:02:19 PM 36.7128 -119.7711 137° Southeast 105 121 6,500 -244 Descending Oakland Center
Thu 10:03:20 PM 36.6922 -119.7444 134° Southeast 106 122 6,300 -293 Descending Oakland Center
Thu 10:04:22 PM 36.6700 -119.7217 141° Southeast 105 121 5,900 -439 Descending Oakland Center
Thu 10:05:23 PM 36.6444 -119.7008 147° Southeast 106 122 5,400 -439 Descending Oakland Center
Thu 10:06:25 PM 36.6194 -119.6792 145° Southeast 108 124 5,000 -195 Descending Oakland Center
Thu 10:07:26 PM 36.5928 -119.6553 144° Southeast 103 119 5,000  Level Oakland Center
Thu 10:08:27 PM 36.5700 -119.6381 149° Southeast 100 115 5,000 -146 Level Oakland Center
Thu 10:09:29 PM 36.5481 -119.6186 145° Southeast 99 114 4,700 -293 Descending Oakland Center
Thu 10:10:30 PM 36.5244 -119.5972 144° Southeast 102 117 4,400 -293 Descending Oakland Center
Thu 10:11:32 PM 36.5036 -119.5758 140° Southeast 102 117 4,100 -341 Descending Oakland Center
Thu 10:12:33 PM 36.4800 -119.5536 143° Southeast 102 117 3,700 -197 Descending Oakland Center
Thu 10:13:34 PM 36.4550 -119.5356 150° Southeast 102 117 3,700  Level Oakland Center
Thu 10:15:00 PM 36.4378 -119.4783 149° Southeast  Level FlightAware Approximate
Thu 10:22:00 PM 36.3167 -119.3833 147° Southeast  Level FlightAware Approximate
Thu 10:23:00 PM 36.3186 -119.3929 263° West  Level Estimated

Login

Don't have an account? Register now (free) for customized features, flight alerts, and more!